createdAt,value
2023-01-09T00:01:56.830Z,47.30
2023-01-09T00:04:17.595Z,46.35
2023-01-09T00:06:40.254Z,48.00
2023-01-09T00:09:00.777Z,48.63
2023-01-09T00:11:21.256Z,46.63
2023-01-09T00:13:42.101Z,45.78
2023-01-09T00:16:03.739Z,47.78
2023-01-09T00:18:24.398Z,44.88
2023-01-09T00:20:44.939Z,47.10
2023-01-09T00:23:05.402Z,44.10
2023-01-09T00:25:25.945Z,43.38
2023-01-09T00:27:46.478Z,45.00
2023-01-09T00:30:08.124Z,45.13
2023-01-09T00:32:28.925Z,46.38
2023-01-09T00:34:49.687Z,46.38
2023-01-09T00:37:12.069Z,46.10
2023-01-09T00:39:32.547Z,44.50
2023-01-09T00:41:54.467Z,42.75
2023-01-09T00:44:33.903Z,43.33
2023-01-09T00:46:57.904Z,43.92
2023-01-09T00:49:18.823Z,44.92
2023-01-09T00:51:39.494Z,44.53
2023-01-09T00:53:59.979Z,43.25
2023-01-09T00:56:21.123Z,43.60
2023-01-09T00:58:41.611Z,43.78
2023-01-09T01:01:02.409Z,43.15
2023-01-09T01:03:22.962Z,42.67
2023-01-09T01:06:01.720Z,43.60
2023-01-09T01:08:22.283Z,42.88
2023-01-09T01:10:43.018Z,40.70
2023-01-09T01:13:03.473Z,40.10
2023-01-09T01:15:24.056Z,41.70
2023-01-09T01:17:45.193Z,41.60
2023-01-09T01:20:08.517Z,40.30
2023-01-09T01:22:28.950Z,40.33
2023-01-09T01:24:50.532Z,38.92
2023-01-09T01:27:11.096Z,39.42
2023-01-09T01:29:31.564Z,40.53
2023-01-09T01:31:52.370Z,38.08
2023-01-09T01:34:12.724Z,38.33
2023-01-09T01:36:34.043Z,37.35
2023-01-09T01:38:54.410Z,37.97
2023-01-09T01:41:29.500Z,38.75
2023-01-09T01:43:55.390Z,38.65
2023-01-09T01:46:18.288Z,38.83
2023-01-09T01:48:38.765Z,38.10
2023-01-09T01:51:04.680Z,39.83
2023-01-09T01:53:35.088Z,37.63
2023-01-09T01:56:16.489Z,38.67
2023-01-09T01:58:45.656Z,39.25
2023-01-09T02:01:06.317Z,38.72
2023-01-09T02:03:27.915Z,38.13
2023-01-09T02:05:48.626Z,40.92
2023-01-09T02:08:09.329Z,37.25
2023-01-09T02:10:30.147Z,36.70
2023-01-09T02:12:50.944Z,38.10
2023-01-09T02:15:14.047Z,36.65
2023-01-09T02:17:44.652Z,39.05
2023-01-09T02:20:34.512Z,35.05
2023-01-09T02:22:58.719Z,37.70
2023-01-09T02:28:55.729Z,34.08
2023-01-09T02:31:40.554Z,35.65
2023-01-09T02:34:24.818Z,36.83
2023-01-09T02:37:19.414Z,36.78
2023-01-09T02:39:59.266Z,36.92
2023-01-09T02:42:23.751Z,36.45
2023-01-09T02:44:45.584Z,36.70
2023-01-09T02:47:18.235Z,36.30
2023-01-09T02:49:38.964Z,37.60
2023-01-09T02:52:32.071Z,36.42
2023-01-09T02:55:37.561Z,36.33
2023-01-09T02:58:10.742Z,37.80
2023-01-09T03:00:40.191Z,35.00
2023-01-09T03:03:27.729Z,36.13
2023-01-09T03:06:03.889Z,37.97
2023-01-09T03:08:28.856Z,37.97
2023-01-09T03:11:08.986Z,38.72
2023-01-09T03:13:54.614Z,36.00
2023-01-09T03:16:21.434Z,38.67
2023-01-09T03:18:41.837Z,37.17
2023-01-09T03:21:02.322Z,34.90
2023-01-09T03:23:22.930Z,37.13
2023-01-09T03:25:43.414Z,37.00
2023-01-09T03:28:07.083Z,36.05
2023-01-09T03:30:28.970Z,36.40
2023-01-09T03:32:49.833Z,36.83
2023-01-09T03:35:10.318Z,34.38
2023-01-09T03:37:30.854Z,35.13
2023-01-09T03:39:51.358Z,35.00
2023-01-09T03:42:11.859Z,36.25
2023-01-09T03:44:32.440Z,35.67
2023-01-09T03:46:53.232Z,36.60
2023-01-09T03:49:14.005Z,36.15
2023-01-09T03:51:34.742Z,35.88
2023-01-09T03:53:55.236Z,36.47
2023-01-09T03:56:15.833Z,34.92
2023-01-09T03:58:36.406Z,34.17
2023-01-09T04:01:05.070Z,34.03
2023-01-09T04:03:25.975Z,35.95
2023-01-09T04:05:47.764Z,34.88
2023-01-09T04:07:59.190Z,35.72
2023-01-09T04:10:19.882Z,34.35
2023-01-09T04:12:40.523Z,35.33
2023-01-09T04:15:00.978Z,34.72
2023-01-09T04:17:21.652Z,34.67
2023-01-09T04:19:42.387Z,35.22
2023-01-09T04:22:02.939Z,35.30
2023-01-09T04:24:23.557Z,35.72
2023-01-09T04:26:44.093Z,34.47
2023-01-09T04:29:04.625Z,35.67
2023-01-09T04:31:25.335Z,34.95
2023-01-09T04:33:47.138Z,36.95
2023-01-09T04:36:08.263Z,35.13
2023-01-09T04:38:28.904Z,35.20
2023-01-09T04:40:49.398Z,36.22
2023-01-09T04:43:09.858Z,35.47
2023-01-09T04:45:30.521Z,35.40
2023-01-09T04:47:51.038Z,34.83
2023-01-09T04:50:12.439Z,35.17
2023-01-09T04:52:33.148Z,35.03
2023-01-09T04:54:53.793Z,36.15
2023-01-09T04:57:14.493Z,36.28
2023-01-09T04:59:35.461Z,34.38
2023-01-09T05:01:58.357Z,37.90
2023-01-09T05:04:19.040Z,37.00
2023-01-09T05:06:39.500Z,37.08
2023-01-09T05:09:00.644Z,36.63
2023-01-09T05:11:21.588Z,38.38
2023-01-09T05:13:42.073Z,36.25
2023-01-09T05:16:02.473Z,36.50
2023-01-09T05:18:23.072Z,38.10
2023-01-09T05:20:43.553Z,37.30
2023-01-09T05:22:45.865Z,37.30
2023-01-09T05:24:48.035Z,37.25
2023-01-09T05:26:50.132Z,37.13
2023-01-09T05:28:58.918Z,37.60
2023-01-09T05:31:01.028Z,37.08
2023-01-09T05:33:03.097Z,40.00
2023-01-09T05:35:05.751Z,40.78
2023-01-09T05:39:10.037Z,39.97
2023-01-09T05:41:12.120Z,40.30
2023-01-09T05:43:14.118Z,42.95
2023-01-09T05:45:16.234Z,42.60
2023-01-09T05:47:18.262Z,40.55
2023-01-09T05:49:21.456Z,43.53
2023-01-09T05:51:23.603Z,43.75
2023-01-09T05:53:25.671Z,41.25
2023-01-09T05:55:27.773Z,42.58
2023-01-09T05:57:29.842Z,45.33
2023-01-09T05:59:31.953Z,44.95
2023-01-09T06:01:34.057Z,44.63
2023-01-09T06:03:36.087Z,44.90
2023-01-09T06:05:38.194Z,44.97
2023-01-09T06:07:40.846Z,44.22
2023-01-09T06:11:48.248Z,45.25
2023-01-09T06:13:50.293Z,44.78
2023-01-09T06:15:52.513Z,46.40
2023-01-09T06:17:54.772Z,46.30
2023-01-09T06:19:56.967Z,44.20
2023-01-09T06:21:59.069Z,45.78
2023-01-09T06:24:01.196Z,46.72
2023-01-09T06:26:03.367Z,46.20
2023-01-09T06:28:05.630Z,46.70
2023-01-09T06:30:08.993Z,46.67
2023-01-09T06:32:11.075Z,43.30
2023-01-09T06:34:13.145Z,44.60
2023-01-09T06:36:15.354Z,46.13
2023-01-09T06:38:17.448Z,46.83
2023-01-09T06:40:21.284Z,43.63
2023-01-09T06:42:23.518Z,46.28
2023-01-09T06:44:25.633Z,44.05
2023-01-09T06:46:27.759Z,44.42
2023-01-09T06:48:29.929Z,42.10
2023-01-09T06:50:32.555Z,43.45
2023-01-09T06:54:36.778Z,41.60
2023-01-09T06:56:38.804Z,43.17
2023-01-09T06:58:40.914Z,43.53
2023-01-09T07:00:43.606Z,44.10
2023-01-09T07:02:45.662Z,42.03
2023-01-09T07:04:47.848Z,42.83
2023-01-09T07:06:50.073Z,41.05
2023-01-09T07:08:52.094Z,43.22
2023-01-09T07:10:54.223Z,43.10
2023-01-09T07:12:56.392Z,42.97
2023-01-09T07:14:58.607Z,42.47
2023-01-09T07:17:00.691Z,42.10
2023-01-09T07:19:03.591Z,40.83
2023-01-09T07:21:08.797Z,40.85
2023-01-09T07:23:13.045Z,39.85
2023-01-09T07:25:15.214Z,40.80
2023-01-09T07:27:17.285Z,40.55
2023-01-09T07:29:19.426Z,41.17
2023-01-09T07:31:21.544Z,39.13
2023-01-09T07:33:23.703Z,39.63
2023-01-09T07:35:25.807Z,39.22
2023-01-09T07:37:27.937Z,41.33
2023-01-09T07:39:30.126Z,40.65
2023-01-09T07:41:32.194Z,38.88
2023-01-09T07:43:34.297Z,39.25
2023-01-09T07:45:36.352Z,42.47
2023-01-09T07:47:41.778Z,40.30
2023-01-09T07:49:43.881Z,41.35
2023-01-09T07:51:48.332Z,41.88
2023-01-09T07:53:50.456Z,41.20
2023-01-09T07:55:52.570Z,43.15
2023-01-09T07:57:54.630Z,40.03
2023-01-09T07:59:56.979Z,42.13
2023-01-09T08:01:59.183Z,40.50
2023-01-09T08:04:01.228Z,42.05
2023-01-09T08:06:03.412Z,43.05
2023-01-09T08:08:07.178Z,42.78
2023-01-09T08:10:10.684Z,42.70
2023-01-09T08:12:12.735Z,42.85
2023-01-09T08:14:15.267Z,41.03
2023-01-09T08:16:17.641Z,42.72
2023-01-09T08:18:19.846Z,40.63
2023-01-09T08:20:22.000Z,41.90
2023-01-09T08:22:24.145Z,40.95
2023-01-09T08:24:26.284Z,41.65
2023-01-09T08:26:28.371Z,40.30
2023-01-09T08:28:30.577Z,40.50
2023-01-09T08:30:32.746Z,41.92
2023-01-09T08:32:34.831Z,43.13
2023-01-09T08:34:37.046Z,40.35
2023-01-09T08:36:39.227Z,41.95
2023-01-09T08:38:41.267Z,41.50
2023-01-09T08:40:43.409Z,40.97
2023-01-09T08:43:04.078Z,41.88
2023-01-09T08:45:25.908Z,41.25
2023-01-09T08:47:33.354Z,40.67
2023-01-09T08:49:37.365Z,41.50
2023-01-09T08:51:39.452Z,40.95
2023-01-09T08:53:41.557Z,42.15
2023-01-09T08:55:43.722Z,43.45
2023-01-09T08:57:53.113Z,44.83
2023-01-09T08:59:55.309Z,41.58
2023-01-09T09:01:58.351Z,42.45
2023-01-09T09:04:00.941Z,39.85
2023-01-09T09:06:03.313Z,41.10
2023-01-09T09:08:06.271Z,40.15
2023-01-09T09:10:09.184Z,42.92
2023-01-09T09:12:11.265Z,42.05
2023-01-09T09:14:32.089Z,40.63
2023-01-09T09:16:34.222Z,39.55
2023-01-09T09:18:36.326Z,41.78
2023-01-09T09:20:39.090Z,41.42
2023-01-09T09:24:43.081Z,41.75
2023-01-09T09:26:45.205Z,40.80
2023-01-09T09:28:47.351Z,39.90
2023-01-09T09:30:49.496Z,40.65
2023-01-09T09:32:51.545Z,40.78
2023-01-09T09:34:53.712Z,41.70
2023-01-09T09:36:55.807Z,41.22
2023-01-09T09:38:57.963Z,42.08
2023-01-09T09:41:31.408Z,42.38
2023-01-09T09:44:24.916Z,44.22
2023-01-09T09:46:47.125Z,43.92
2023-01-09T09:48:58.176Z,45.72
2023-01-09T09:51:37.324Z,43.75
2023-01-09T09:53:50.650Z,44.00
2023-01-09T09:55:52.687Z,45.88
2023-01-09T09:57:54.821Z,44.08
2023-01-09T09:59:56.869Z,44.72
2023-01-09T10:02:10.499Z,47.30
2023-01-09T10:04:17.767Z,45.08
2023-01-09T10:06:33.125Z,44.40
2023-01-09T10:08:56.146Z,45.90
2023-01-09T10:10:58.291Z,44.92
2023-01-09T10:13:20.767Z,44.88
2023-01-09T10:15:29.248Z,46.33
2023-01-09T10:17:41.644Z,44.92
2023-01-09T10:19:47.946Z,44.25
2023-01-09T10:22:11.261Z,45.05
2023-01-09T10:25:11.294Z,43.53
2023-01-09T10:27:32.097Z,45.05
2023-01-09T10:29:41.592Z,45.08
2023-01-09T10:32:20.032Z,46.28
2023-01-09T10:34:49.473Z,45.10
2023-01-09T10:37:13.501Z,43.75
2023-01-09T10:39:46.587Z,46.05
2023-01-09T10:42:04.055Z,47.95
2023-01-09T10:44:25.321Z,48.45
2023-01-09T10:46:38.370Z,47.05
2023-01-09T10:48:44.299Z,46.85
2023-01-09T10:50:46.543Z,44.75
2023-01-09T10:52:51.367Z,45.90
2023-01-09T10:54:57.132Z,45.13
2023-01-09T10:57:07.565Z,45.85
2023-01-09T10:59:09.753Z,43.47
2023-01-09T11:01:11.860Z,43.22
2023-01-09T11:03:16.375Z,46.78
2023-01-09T11:05:25.142Z,43.75
2023-01-09T11:07:30.722Z,44.40
2023-01-09T11:09:59.136Z,46.20
2023-01-09T11:12:23.855Z,44.63
2023-01-09T11:14:33.334Z,44.42
2023-01-09T11:16:35.689Z,45.00
2023-01-09T11:18:51.912Z,43.90
2023-01-09T11:20:54.056Z,45.53
2023-01-09T11:22:58.010Z,45.45
2023-01-09T11:25:01.613Z,43.25
2023-01-09T11:27:24.087Z,44.80
2023-01-09T11:29:26.582Z,42.92
2023-01-09T11:31:29.166Z,45.80
2023-01-09T11:33:37.902Z,41.92
2023-01-09T11:35:39.930Z,43.55
2023-01-09T11:37:42.015Z,41.97
2023-01-09T11:39:47.113Z,42.13
2023-01-09T11:41:52.771Z,44.05
2023-01-09T11:43:57.514Z,41.63
2023-01-09T11:46:11.537Z,43.03
2023-01-09T11:48:19.492Z,42.10
2023-01-09T11:50:27.280Z,42.58
2023-01-09T11:52:29.499Z,42.20
2023-01-09T11:54:32.634Z,42.55
2023-01-09T11:56:36.692Z,41.88
2023-01-09T11:58:38.791Z,42.53
2023-01-09T12:01:03.177Z,44.20
2023-01-09T12:03:59.000Z,42.50
2023-01-09T12:06:10.969Z,44.70
2023-01-09T12:08:36.201Z,42.70
2023-01-09T12:11:36.944Z,41.80
2023-01-09T12:14:04.180Z,42.22
2023-01-09T12:16:51.154Z,42.08
2023-01-09T12:19:11.123Z,41.65
2023-01-09T12:21:36.352Z,41.47
2023-01-09T12:23:48.962Z,42.42
2023-01-09T12:26:17.340Z,41.10
2023-01-09T12:29:10.584Z,42.25
2023-01-09T12:31:28.611Z,42.27
2023-01-09T12:33:43.076Z,42.63
2023-01-09T12:35:51.413Z,44.13
2023-01-09T12:38:21.914Z,44.05
2023-01-09T12:40:30.681Z,43.33
2023-01-09T12:43:02.558Z,43.17
2023-01-09T12:45:24.250Z,42.38
2023-01-09T12:47:49.085Z,42.97
2023-01-09T12:50:34.411Z,42.33
2023-01-09T12:53:10.809Z,43.50
2023-01-09T12:55:23.811Z,44.08
2023-01-09T12:59:49.233Z,46.95
2023-01-09T13:01:51.295Z,47.13
2023-01-09T13:04:18.286Z,46.05
2023-01-09T13:06:21.392Z,48.17
2023-01-09T13:10:46.254Z,46.08
2023-01-09T13:12:48.648Z,48.25
2023-01-09T13:14:56.437Z,46.33
2023-01-09T13:16:58.508Z,47.47
2023-01-09T13:19:07.883Z,47.42
2023-01-09T13:21:10.171Z,46.13
2023-01-09T13:24:00.340Z,48.75
2023-01-09T13:26:08.189Z,47.65
2023-01-09T13:28:54.989Z,48.22
2023-01-09T13:31:30.748Z,45.58
2023-01-09T13:33:49.948Z,47.30
2023-01-09T13:35:54.468Z,48.45
2023-01-09T13:37:56.648Z,45.75
2023-01-09T13:40:04.198Z,45.30
2023-01-09T13:42:26.092Z,45.72
2023-01-09T13:44:28.895Z,45.30
2023-01-09T13:46:58.922Z,44.53
2023-01-09T13:49:01.399Z,46.00
2023-01-09T13:51:44.198Z,43.80
2023-01-09T13:53:46.777Z,47.07
2023-01-09T13:55:58.380Z,47.85
2023-01-09T13:58:08.706Z,46.87
2023-01-09T14:00:14.662Z,46.53
2023-01-09T14:02:50.028Z,46.25
2023-01-09T14:04:52.081Z,45.72
2023-01-09T14:07:23.331Z,48.30
2023-01-09T14:09:25.426Z,46.97
2023-01-09T14:11:29.153Z,47.95
2023-01-09T14:13:33.889Z,46.65
2023-01-09T14:15:41.229Z,46.55
2023-01-09T14:17:43.323Z,46.75
2023-01-09T14:19:45.495Z,46.45
2023-01-09T14:21:54.452Z,47.28
2023-01-09T14:24:06.175Z,48.83
2023-01-09T14:26:25.345Z,46.58
2023-01-09T14:28:31.859Z,46.97
2023-01-09T14:30:39.211Z,44.65
2023-01-09T14:32:44.670Z,47.60
2023-01-09T14:35:08.315Z,50.08
2023-01-09T14:37:12.652Z,48.13
2023-01-09T14:39:14.838Z,47.88
2023-01-09T14:41:55.588Z,49.65
2023-01-09T14:44:03.687Z,47.63
2023-01-09T14:46:20.429Z,46.80
2023-01-09T14:48:24.472Z,45.72
2023-01-09T14:50:33.527Z,48.72
2023-01-09T14:52:37.862Z,49.42
2023-01-09T14:54:42.206Z,49.22
2023-01-09T14:56:48.100Z,48.00
2023-01-09T14:59:26.229Z,49.35
2023-01-09T15:01:32.622Z,48.10
2023-01-09T15:03:50.002Z,48.67
2023-01-09T15:05:52.950Z,49.00
2023-01-09T15:08:01.573Z,49.45
2023-01-09T15:10:04.043Z,49.75
2023-01-09T15:12:08.724Z,51.63
2023-01-09T15:14:32.657Z,50.08
2023-01-09T15:16:34.880Z,49.20
2023-01-09T15:18:42.103Z,50.67
2023-01-09T15:20:44.126Z,47.13
2023-01-09T15:22:51.150Z,48.95
2023-01-09T15:24:55.041Z,49.25
2023-01-09T15:27:04.634Z,51.83
2023-01-09T15:29:17.898Z,49.45
2023-01-09T15:31:22.900Z,52.58
2023-01-09T15:33:25.098Z,52.72
2023-01-09T15:35:27.720Z,56.50
2023-01-09T15:37:39.157Z,54.00
2023-01-09T15:39:41.434Z,52.97
2023-01-09T15:42:01.966Z,55.70
2023-01-09T15:44:05.262Z,54.28
2023-01-09T15:46:07.505Z,52.75
2023-01-09T15:48:33.054Z,50.50
2023-01-09T15:50:35.256Z,51.25
2023-01-09T15:52:37.305Z,54.63
2023-01-09T15:54:40.038Z,52.42
2023-01-09T15:58:50.765Z,52.10
2023-01-09T16:00:58.593Z,54.15
2023-01-09T16:03:11.880Z,52.60
2023-01-09T16:05:16.077Z,49.42
2023-01-09T16:07:20.270Z,49.08
2023-01-09T16:09:30.252Z,50.97
2023-01-09T16:11:38.611Z,49.15
2023-01-09T16:13:44.100Z,50.45
2023-01-09T16:15:46.327Z,49.80
2023-01-09T16:18:18.040Z,51.03
2023-01-09T16:20:25.590Z,49.90
2023-01-09T16:22:34.170Z,49.63
2023-01-09T16:24:45.395Z,48.47
2023-01-09T16:26:47.622Z,51.00
2023-01-09T16:28:51.062Z,57.95
2023-01-09T16:33:04.719Z,51.40
2023-01-09T16:35:18.015Z,54.50
2023-01-09T16:37:21.835Z,52.65
2023-01-09T16:39:25.620Z,56.95
2023-01-09T16:41:46.572Z,56.25
2023-01-09T16:43:51.883Z,54.08
2023-01-09T16:45:55.681Z,54.10
2023-01-09T16:47:58.284Z,57.35
2023-01-09T16:50:00.476Z,56.70
2023-01-09T16:52:03.339Z,55.55
2023-01-09T16:54:05.470Z,53.63
2023-01-09T16:56:39.496Z,55.88
2023-01-09T16:58:41.733Z,54.63
2023-01-09T17:00:43.998Z,54.53
2023-01-09T17:02:46.734Z,57.28
2023-01-09T17:06:51.178Z,53.85
2023-01-09T17:08:53.341Z,54.05
2023-01-09T17:10:56.193Z,55.33
2023-01-09T17:12:58.310Z,53.33
2023-01-09T17:15:02.562Z,58.53
2023-01-09T17:17:08.831Z,54.28
2023-01-09T17:19:18.958Z,53.50
2023-01-09T17:21:23.549Z,56.95
2023-01-09T17:23:26.051Z,53.72
2023-01-09T17:25:47.008Z,55.20
2023-01-09T17:28:07.799Z,55.22
2023-01-09T17:30:18.696Z,53.05
2023-01-09T17:32:21.450Z,51.15
2023-01-09T17:34:23.639Z,54.20
2023-01-09T17:36:34.761Z,54.53
2023-01-09T17:38:36.896Z,51.45
2023-01-09T17:40:39.099Z,50.83
2023-01-09T17:42:41.257Z,49.35
2023-01-09T17:44:43.433Z,51.83
2023-01-09T17:46:45.619Z,48.53
2023-01-09T17:48:47.730Z,53.15
2023-01-09T17:50:49.993Z,50.78
2023-01-09T17:52:52.021Z,50.10
2023-01-09T17:54:54.084Z,49.92
2023-01-09T17:56:56.238Z,49.80
2023-01-09T17:58:58.453Z,49.40
2023-01-09T18:01:00.712Z,50.28
2023-01-09T18:03:07.618Z,52.63
2023-01-09T18:05:09.975Z,53.90
2023-01-09T18:07:16.557Z,52.38
2023-01-09T18:09:18.732Z,50.97
2023-01-09T18:11:21.514Z,51.47
2023-01-09T18:13:23.655Z,51.10
2023-01-09T18:15:25.805Z,53.35
2023-01-09T18:17:27.852Z,52.40
2023-01-09T18:19:29.973Z,52.35
2023-01-09T18:21:32.167Z,54.63
2023-01-09T18:23:35.181Z,52.47
2023-01-09T18:25:43.497Z,53.60
2023-01-09T18:27:45.624Z,53.22
2023-01-09T18:29:47.800Z,55.05
2023-01-09T18:31:51.398Z,53.58
2023-01-09T18:33:56.551Z,56.03
2023-01-09T18:36:08.423Z,54.75
2023-01-09T18:38:10.887Z,56.85
2023-01-09T18:40:13.338Z,54.75
2023-01-09T18:42:15.494Z,57.03
2023-01-09T18:44:20.116Z,56.97
2023-01-09T18:46:25.445Z,54.10
2023-01-09T18:48:27.560Z,55.75
2023-01-09T18:50:29.619Z,56.00
2023-01-09T18:52:31.691Z,56.65
2023-01-09T18:54:33.824Z,55.30
2023-01-09T18:56:36.176Z,54.42
2023-01-09T18:58:38.277Z,58.05
2023-01-09T19:00:41.713Z,54.13
2023-01-09T19:02:43.892Z,56.55
2023-01-09T19:04:46.091Z,54.83
2023-01-09T19:06:48.275Z,56.25
2023-01-09T19:08:50.358Z,56.45
2023-01-09T19:10:53.361Z,57.25
2023-01-09T19:12:55.507Z,55.20
2023-01-09T19:14:57.600Z,55.65
2023-01-09T19:17:01.351Z,55.03
2023-01-09T19:19:03.432Z,54.10
2023-01-09T19:21:19.563Z,57.45
2023-01-09T19:23:24.747Z,56.13
2023-01-09T19:25:26.982Z,54.30
2023-01-09T19:27:30.475Z,58.60
2023-01-09T19:29:33.743Z,54.60
2023-01-09T19:31:36.924Z,55.28
2023-01-09T19:33:39.104Z,53.35
2023-01-09T19:35:41.332Z,54.90
2023-01-09T19:37:43.758Z,51.97
2023-01-09T19:39:46.924Z,53.60
2023-01-09T19:41:49.209Z,52.35
2023-01-09T19:43:51.289Z,54.55
2023-01-09T19:45:57.107Z,52.83
2023-01-09T19:48:00.015Z,54.33
2023-01-09T19:50:05.014Z,49.85
2023-01-09T19:52:07.386Z,52.05
2023-01-09T19:54:11.520Z,52.65
2023-01-09T19:56:16.677Z,50.97
2023-01-09T19:58:19.368Z,54.10
2023-01-09T20:02:23.463Z,51.63
2023-01-09T20:04:27.626Z,51.90
2023-01-09T20:06:30.689Z,50.55
2023-01-09T20:08:32.772Z,53.42
2023-01-09T20:10:34.861Z,49.58
2023-01-09T20:12:37.208Z,49.42
2023-01-09T20:14:39.368Z,46.60
2023-01-09T20:16:42.181Z,49.55
2023-01-09T20:18:44.340Z,49.78
2023-01-09T20:20:50.480Z,47.47
2023-01-09T20:22:52.654Z,47.55
2023-01-09T20:24:54.887Z,47.92
2023-01-09T20:26:56.956Z,50.70
2023-01-09T20:29:00.777Z,48.88
2023-01-09T20:31:05.840Z,48.67
2023-01-09T20:33:08.010Z,47.15
2023-01-09T20:35:10.526Z,46.97
2023-01-09T20:37:12.823Z,46.55
2023-01-09T20:39:15.405Z,45.40
2023-01-09T20:41:26.665Z,46.13
2023-01-09T20:43:28.790Z,44.63
2023-01-09T20:45:39.770Z,43.88
2023-01-09T20:47:42.114Z,42.30
2023-01-09T20:49:44.586Z,42.83
2023-01-09T20:53:56.765Z,40.38
2023-01-09T20:56:03.781Z,40.33
2023-01-09T20:58:07.194Z,39.63
2023-01-09T21:00:11.932Z,41.53
2023-01-09T21:02:14.743Z,38.97
2023-01-09T21:04:18.179Z,38.30
2023-01-09T21:06:22.020Z,38.83
2023-01-09T21:08:24.282Z,35.00
2023-01-09T21:10:26.367Z,38.75
2023-01-09T21:12:34.730Z,38.35
2023-01-09T21:14:38.936Z,38.63
2023-01-09T21:16:41.418Z,37.75
2023-01-09T21:18:44.388Z,38.28
2023-01-09T21:20:46.525Z,38.05
2023-01-09T21:22:49.441Z,36.45
2023-01-09T21:24:51.711Z,36.50
2023-01-09T21:26:53.931Z,37.05
2023-01-09T21:28:57.501Z,37.80
2023-01-09T21:30:59.638Z,34.85
2023-01-09T21:33:01.847Z,35.53
2023-01-09T21:35:05.985Z,34.35
2023-01-09T21:37:08.209Z,34.35
2023-01-09T21:39:10.323Z,34.13
2023-01-09T21:41:30.998Z,32.88
2023-01-09T21:43:51.695Z,34.00
2023-01-09T21:46:12.145Z,32.85
2023-01-09T21:48:16.579Z,33.13
2023-01-09T21:50:19.034Z,30.35
2023-01-09T21:52:21.162Z,30.02
2023-01-09T21:54:23.890Z,31.88
2023-01-09T21:58:27.961Z,29.92
2023-01-09T22:00:30.298Z,29.98
2023-01-09T22:02:33.057Z,32.92
2023-01-09T22:06:37.242Z,29.65
2023-01-09T22:08:39.339Z,31.08
2023-01-09T22:10:41.864Z,32.28
2023-01-09T22:13:03.881Z,31.08
2023-01-09T22:15:06.799Z,31.00
2023-01-09T22:17:08.882Z,32.53
2023-01-09T22:19:13.966Z,33.88
2023-01-09T22:21:17.670Z,31.63
2023-01-09T22:23:19.744Z,31.52
2023-01-09T22:25:22.860Z,33.78
2023-01-09T22:27:25.019Z,32.15
2023-01-09T22:29:27.071Z,32.00
2023-01-09T22:31:29.460Z,31.15
2023-01-09T22:33:31.615Z,31.20
2023-01-09T22:35:39.831Z,32.78
2023-01-09T22:37:41.917Z,31.52
2023-01-09T22:39:44.048Z,32.28
2023-01-09T22:41:50.424Z,32.35
2023-01-09T22:43:52.551Z,33.00
2023-01-09T22:45:59.160Z,32.17
2023-01-09T22:48:01.342Z,32.63
2023-01-09T22:50:03.667Z,31.83
2023-01-09T22:52:05.848Z,31.00
2023-01-09T22:54:08.024Z,32.58
2023-01-09T22:56:15.476Z,31.60
2023-01-09T22:58:17.627Z,31.90
2023-01-09T23:00:19.976Z,33.10
2023-01-09T23:02:22.215Z,32.17
2023-01-09T23:04:24.344Z,32.13
2023-01-09T23:06:26.521Z,29.85
2023-01-09T23:08:29.444Z,32.47
2023-01-09T23:10:31.590Z,32.03
2023-01-09T23:12:33.899Z,30.83
2023-01-09T23:14:37.449Z,29.95
2023-01-09T23:16:39.861Z,31.55
2023-01-09T23:18:41.958Z,29.95
2023-01-09T23:20:57.845Z,30.98
2023-01-09T23:22:59.975Z,29.17
2023-01-09T23:25:02.123Z,30.80
2023-01-09T23:27:04.689Z,27.90
2023-01-09T23:29:07.403Z,30.17
2023-01-09T23:31:09.421Z,29.60
2023-01-09T23:33:11.862Z,29.33
2023-01-09T23:35:16.180Z,28.20
2023-01-09T23:37:18.288Z,28.50
2023-01-09T23:39:20.451Z,28.02
2023-01-09T23:41:42.737Z,26.48
2023-01-09T23:43:45.087Z,34.22
2023-01-09T23:45:49.950Z,52.50
2023-01-09T23:47:52.005Z,50.17
2023-01-09T23:49:54.122Z,42.28
2023-01-09T23:51:56.607Z,48.05
2023-01-09T23:53:59.108Z,53.28
2023-01-09T23:56:01.568Z,41.75
2023-01-09T23:58:03.670Z,28.55
